sensor_id;sensor_type;location;lat;lon;timestamp;P1;durP1;ratioP1;P2;durP2;ratioP2
11685;SDS011;5899;51.282;6.094;2023-03-18T00:01:03;5.75;;;3.00;;
11685;SDS011;5899;51.282;6.094;2023-03-18T00:03:34;3.85;;;3.25;;
11685;SDS011;5899;51.282;6.094;2023-03-18T00:06:04;6.13;;;3.10;;
11685;SDS011;5899;51.282;6.094;2023-03-18T00:08:31;4.95;;;3.20;;
11685;SDS011;5899;51.282;6.094;2023-03-18T00:10:58;5.13;;;3.58;;
11685;SDS011;5899;51.282;6.094;2023-03-18T00:13:34;3.95;;;3.47;;
11685;SDS011;5899;51.282;6.094;2023-03-18T00:16:04;4.97;;;3.50;;
11685;SDS011;5899;51.282;6.094;2023-03-18T00:18:35;6.22;;;3.72;;
11685;SDS011;5899;51.282;6.094;2023-03-18T00:21:13;5.93;;;3.40;;
11685;SDS011;5899;51.282;6.094;2023-03-18T00:23:43;4.68;;;3.67;;
11685;SDS011;5899;51.282;6.094;2023-03-18T00:26:12;6.10;;;4.03;;
11685;SDS011;5899;51.282;6.094;2023-03-18T00:28:40;6.18;;;3.60;;
11685;SDS011;5899;51.282;6.094;2023-03-18T00:31:07;5.43;;;3.67;;
11685;SDS011;5899;51.282;6.094;2023-03-18T00:33:35;5.43;;;3.70;;
11685;SDS011;5899;51.282;6.094;2023-03-18T00:36:02;5.88;;;3.78;;
11685;SDS011;5899;51.282;6.094;2023-03-18T00:38:34;4.80;;;4.07;;
11685;SDS011;5899;51.282;6.094;2023-03-18T00:41:03;5.43;;;3.78;;
11685;SDS011;5899;51.282;6.094;2023-03-18T00:43:35;7.47;;;3.90;;
11685;SDS011;5899;51.282;6.094;2023-03-18T00:46:12;5.68;;;3.65;;
11685;SDS011;5899;51.282;6.094;2023-03-18T00:48:40;5.55;;;3.85;;
11685;SDS011;5899;51.282;6.094;2023-03-18T00:51:07;6.93;;;4.18;;
11685;SDS011;5899;51.282;6.094;2023-03-18T00:53:42;5.82;;;3.70;;
11685;SDS011;5899;51.282;6.094;2023-03-18T00:56:31;5.13;;;3.70;;
11685;SDS011;5899;51.282;6.094;2023-03-18T01:01:51;5.10;;;3.75;;
11685;SDS011;5899;51.282;6.094;2023-03-18T01:04:18;5.43;;;3.50;;
11685;SDS011;5899;51.282;6.094;2023-03-18T01:06:49;7.03;;;3.85;;
11685;SDS011;5899;51.282;6.094;2023-03-18T01:09:17;5.60;;;3.47;;
11685;SDS011;5899;51.282;6.094;2023-03-18T01:11:47;5.17;;;3.70;;
11685;SDS011;5899;51.282;6.094;2023-03-18T01:14:18;6.32;;;3.55;;
11685;SDS011;5899;51.282;6.094;2023-03-18T01:16:46;5.90;;;4.20;;
11685;SDS011;5899;51.282;6.094;2023-03-18T01:19:15;8.40;;;4.82;;
11685;SDS011;5899;51.282;6.094;2023-03-18T01:21:48;6.15;;;4.30;;
11685;SDS011;5899;51.282;6.094;2023-03-18T01:24:22;7.43;;;4.10;;
11685;SDS011;5899;51.282;6.094;2023-03-18T01:26:56;8.47;;;4.60;;
11685;SDS011;5899;51.282;6.094;2023-03-18T01:29:27;7.63;;;4.57;;
11685;SDS011;5899;51.282;6.094;2023-03-18T01:31:56;8.47;;;4.63;;
11685;SDS011;5899;51.282;6.094;2023-03-18T01:34:37;7.20;;;4.53;;
11685;SDS011;5899;51.282;6.094;2023-03-18T01:37:06;7.00;;;4.55;;
11685;SDS011;5899;51.282;6.094;2023-03-18T01:39:35;6.63;;;4.43;;
11685;SDS011;5899;51.282;6.094;2023-03-18T01:44:44;6.85;;;4.53;;
11685;SDS011;5899;51.282;6.094;2023-03-18T01:47:11;5.93;;;4.60;;
11685;SDS011;5899;51.282;6.094;2023-03-18T01:49:40;7.23;;;4.27;;
11685;SDS011;5899;51.282;6.094;2023-03-18T01:52:09;7.05;;;4.18;;
11685;SDS011;5899;51.282;6.094;2023-03-18T01:54:42;4.82;;;3.78;;
11685;SDS011;5899;51.282;6.094;2023-03-18T01:57:14;6.72;;;4.13;;
11685;SDS011;5899;51.282;6.094;2023-03-18T01:59:43;6.50;;;4.30;;
11685;SDS011;5899;51.282;6.094;2023-03-18T02:02:14;5.40;;;3.65;;
11685;SDS011;5899;51.282;6.094;2023-03-18T02:04:48;6.10;;;4.20;;
11685;SDS011;5899;51.282;6.094;2023-03-18T02:07:29;6.32;;;4.53;;
11685;SDS011;5899;51.282;6.094;2023-03-18T02:09:58;7.20;;;4.80;;
11685;SDS011;5899;51.282;6.094;2023-03-18T02:12:36;7.72;;;6.43;;
11685;SDS011;5899;51.282;6.094;2023-03-18T02:15:15;12.50;;;8.88;;
11685;SDS011;5899;51.282;6.094;2023-03-18T02:17:44;14.32;;;10.57;;
11685;SDS011;5899;51.282;6.094;2023-03-18T02:20:15;15.85;;;12.32;;
11685;SDS011;5899;51.282;6.094;2023-03-18T02:22:57;17.83;;;12.63;;
11685;SDS011;5899;51.282;6.094;2023-03-18T02:25:32;19.43;;;15.13;;
11685;SDS011;5899;51.282;6.094;2023-03-18T02:28:03;20.02;;;15.07;;
11685;SDS011;5899;51.282;6.094;2023-03-18T02:30:33;21.98;;;16.17;;
11685;SDS011;5899;51.282;6.094;2023-03-18T02:33:10;20.13;;;16.00;;
11685;SDS011;5899;51.282;6.094;2023-03-18T02:35:37;23.33;;;18.33;;
11685;SDS011;5899;51.282;6.094;2023-03-18T02:38:04;21.05;;;17.33;;
11685;SDS011;5899;51.282;6.094;2023-03-18T02:40:31;22.90;;;18.95;;
11685;SDS011;5899;51.282;6.094;2023-03-18T02:43:16;21.75;;;17.92;;
11685;SDS011;5899;51.282;6.094;2023-03-18T02:45:54;24.45;;;18.67;;
11685;SDS011;5899;51.282;6.094;2023-03-18T02:48:31;22.02;;;18.15;;
11685;SDS011;5899;51.282;6.094;2023-03-18T02:50:58;26.35;;;19.08;;
11685;SDS011;5899;51.282;6.094;2023-03-18T02:53:27;23.38;;;19.38;;
11685;SDS011;5899;51.282;6.094;2023-03-18T02:55:58;26.52;;;20.40;;
11685;SDS011;5899;51.282;6.094;2023-03-18T02:58:30;27.77;;;20.92;;
11685;SDS011;5899;51.282;6.094;2023-03-18T03:01:04;27.42;;;20.58;;
11685;SDS011;5899;51.282;6.094;2023-03-18T03:03:37;28.10;;;20.20;;
11685;SDS011;5899;51.282;6.094;2023-03-18T03:06:04;30.83;;;21.20;;
11685;SDS011;5899;51.282;6.094;2023-03-18T03:08:33;26.42;;;20.67;;
11685;SDS011;5899;51.282;6.094;2023-03-18T03:11:00;22.95;;;19.15;;
11685;SDS011;5899;51.282;6.094;2023-03-18T03:13:26;24.25;;;17.95;;
11685;SDS011;5899;51.282;6.094;2023-03-18T03:15:59;22.47;;;17.47;;
11685;SDS011;5899;51.282;6.094;2023-03-18T03:18:27;19.07;;;15.73;;
11685;SDS011;5899;51.282;6.094;2023-03-18T03:20:54;19.58;;;15.95;;
11685;SDS011;5899;51.282;6.094;2023-03-18T03:23:23;20.43;;;14.93;;
11685;SDS011;5899;51.282;6.094;2023-03-18T03:25:52;18.80;;;14.52;;
11685;SDS011;5899;51.282;6.094;2023-03-18T03:28:22;16.50;;;12.07;;
11685;SDS011;5899;51.282;6.094;2023-03-18T03:30:49;14.70;;;10.87;;
11685;SDS011;5899;51.282;6.094;2023-03-18T03:33:21;14.65;;;11.02;;
11685;SDS011;5899;51.282;6.094;2023-03-18T03:35:51;12.95;;;10.75;;
11685;SDS011;5899;51.282;6.094;2023-03-18T03:38:20;12.23;;;10.15;;
11685;SDS011;5899;51.282;6.094;2023-03-18T03:40:49;11.88;;;9.70;;
11685;SDS011;5899;51.282;6.094;2023-03-18T03:43:22;10.93;;;9.18;;
11685;SDS011;5899;51.282;6.094;2023-03-18T03:45:51;12.77;;;10.13;;
11685;SDS011;5899;51.282;6.094;2023-03-18T03:48:23;9.90;;;8.55;;
11685;SDS011;5899;51.282;6.094;2023-03-18T03:50:53;12.53;;;9.30;;
11685;SDS011;5899;51.282;6.094;2023-03-18T03:53:20;12.57;;;9.05;;
11685;SDS011;5899;51.282;6.094;2023-03-18T03:55:47;8.68;;;7.50;;
11685;SDS011;5899;51.282;6.094;2023-03-18T03:58:14;10.60;;;8.15;;
11685;SDS011;5899;51.282;6.094;2023-03-18T04:00:44;8.98;;;7.50;;
11685;SDS011;5899;51.282;6.094;2023-03-18T04:03:11;10.40;;;7.43;;
11685;SDS011;5899;51.282;6.094;2023-03-18T04:05:39;9.43;;;7.60;;
11685;SDS011;5899;51.282;6.094;2023-03-18T04:08:07;9.88;;;7.20;;
11685;SDS011;5899;51.282;6.094;2023-03-18T04:10:34;9.55;;;7.82;;
11685;SDS011;5899;51.282;6.094;2023-03-18T04:13:03;10.23;;;6.88;;
11685;SDS011;5899;51.282;6.094;2023-03-18T04:15:30;11.18;;;7.65;;
11685;SDS011;5899;51.282;6.094;2023-03-18T04:17:58;8.43;;;7.28;;
11685;SDS011;5899;51.282;6.094;2023-03-18T04:20:40;10.02;;;7.55;;
11685;SDS011;5899;51.282;6.094;2023-03-18T04:23:16;11.75;;;7.75;;
11685;SDS011;5899;51.282;6.094;2023-03-18T04:25:42;8.85;;;7.03;;
11685;SDS011;5899;51.282;6.094;2023-03-18T04:28:19;9.90;;;7.85;;
11685;SDS011;5899;51.282;6.094;2023-03-18T04:30:46;10.02;;;7.68;;
11685;SDS011;5899;51.282;6.094;2023-03-18T04:33:13;7.68;;;6.80;;
11685;SDS011;5899;51.282;6.094;2023-03-18T04:35:51;11.03;;;7.63;;
11685;SDS011;5899;51.282;6.094;2023-03-18T04:38:24;10.05;;;7.15;;
11685;SDS011;5899;51.282;6.094;2023-03-18T04:41:00;7.97;;;6.53;;
11685;SDS011;5899;51.282;6.094;2023-03-18T04:43:27;9.90;;;7.50;;
11685;SDS011;5899;51.282;6.094;2023-03-18T04:45:54;10.67;;;7.53;;
11685;SDS011;5899;51.282;6.094;2023-03-18T04:48:24;10.05;;;7.43;;
11685;SDS011;5899;51.282;6.094;2023-03-18T04:50:58;9.63;;;7.28;;
11685;SDS011;5899;51.282;6.094;2023-03-18T04:53:29;9.98;;;7.40;;
11685;SDS011;5899;51.282;6.094;2023-03-18T04:55:56;9.50;;;6.70;;
11685;SDS011;5899;51.282;6.094;2023-03-18T04:58:23;8.23;;;7.37;;
11685;SDS011;5899;51.282;6.094;2023-03-18T05:00:50;8.38;;;6.97;;
11685;SDS011;5899;51.282;6.094;2023-03-18T05:03:18;9.50;;;7.33;;
11685;SDS011;5899;51.282;6.094;2023-03-18T05:05:50;10.68;;;7.43;;
11685;SDS011;5899;51.282;6.094;2023-03-18T05:08:22;10.90;;;7.40;;
11685;SDS011;5899;51.282;6.094;2023-03-18T05:10:51;10.88;;;7.55;;
11685;SDS011;5899;51.282;6.094;2023-03-18T05:13:19;10.00;;;8.13;;
11685;SDS011;5899;51.282;6.094;2023-03-18T05:15:50;9.32;;;7.20;;
11685;SDS011;5899;51.282;6.094;2023-03-18T05:18:16;11.07;;;7.72;;
11685;SDS011;5899;51.282;6.094;2023-03-18T05:20:46;10.15;;;7.95;;
11685;SDS011;5899;51.282;6.094;2023-03-18T05:23:13;11.02;;;8.13;;
11685;SDS011;5899;51.282;6.094;2023-03-18T05:25:50;10.45;;;8.05;;
11685;SDS011;5899;51.282;6.094;2023-03-18T05:28:18;11.52;;;8.25;;
11685;SDS011;5899;51.282;6.094;2023-03-18T05:30:46;10.75;;;8.10;;
11685;SDS011;5899;51.282;6.094;2023-03-18T05:33:12;10.88;;;8.48;;
11685;SDS011;5899;51.282;6.094;2023-03-18T05:35:39;12.43;;;8.38;;
11685;SDS011;5899;51.282;6.094;2023-03-18T05:38:19;10.65;;;7.78;;
11685;SDS011;5899;51.282;6.094;2023-03-18T05:40:48;9.98;;;7.65;;
11685;SDS011;5899;51.282;6.094;2023-03-18T05:43:26;10.27;;;7.93;;
11685;SDS011;5899;51.282;6.094;2023-03-18T05:45:53;10.90;;;7.88;;
11685;SDS011;5899;51.282;6.094;2023-03-18T05:48:23;12.18;;;8.02;;
11685;SDS011;5899;51.282;6.094;2023-03-18T05:50:51;9.68;;;7.63;;
11685;SDS011;5899;51.282;6.094;2023-03-18T05:53:21;9.85;;;7.88;;
11685;SDS011;5899;51.282;6.094;2023-03-18T05:55:56;9.73;;;7.73;;
11685;SDS011;5899;51.282;6.094;2023-03-18T05:58:27;8.93;;;7.30;;
11685;SDS011;5899;51.282;6.094;2023-03-18T06:00:55;9.35;;;7.32;;
11685;SDS011;5899;51.282;6.094;2023-03-18T06:03:25;9.00;;;6.80;;
11685;SDS011;5899;51.282;6.094;2023-03-18T06:05:59;9.48;;;6.35;;
11685;SDS011;5899;51.282;6.094;2023-03-18T06:08:26;9.60;;;7.25;;
11685;SDS011;5899;51.282;6.094;2023-03-18T06:10:53;10.45;;;8.00;;
11685;SDS011;5899;51.282;6.094;2023-03-18T06:13:21;8.70;;;7.20;;
11685;SDS011;5899;51.282;6.094;2023-03-18T06:15:54;9.23;;;7.23;;
11685;SDS011;5899;51.282;6.094;2023-03-18T06:18:21;9.60;;;7.10;;
11685;SDS011;5899;51.282;6.094;2023-03-18T06:20:48;9.60;;;7.32;;
11685;SDS011;5899;51.282;6.094;2023-03-18T06:23:20;9.98;;;7.00;;
11685;SDS011;5899;51.282;6.094;2023-03-18T06:25:47;8.63;;;7.37;;
11685;SDS011;5899;51.282;6.094;2023-03-18T06:28:18;10.30;;;7.70;;
11685;SDS011;5899;51.282;6.094;2023-03-18T06:30:54;7.97;;;7.18;;
11685;SDS011;5899;51.282;6.094;2023-03-18T06:33:23;9.90;;;7.53;;
11685;SDS011;5899;51.282;6.094;2023-03-18T06:35:54;11.15;;;7.38;;
11685;SDS011;5899;51.282;6.094;2023-03-18T06:38:22;11.02;;;7.90;;
11685;SDS011;5899;51.282;6.094;2023-03-18T06:40:51;10.45;;;7.70;;
11685;SDS011;5899;51.282;6.094;2023-03-18T06:43:20;12.85;;;7.70;;
11685;SDS011;5899;51.282;6.094;2023-03-18T06:45:54;10.80;;;8.07;;
11685;SDS011;5899;51.282;6.094;2023-03-18T06:51:07;10.03;;;7.80;;
11685;SDS011;5899;51.282;6.094;2023-03-18T06:53:36;8.73;;;7.72;;
11685;SDS011;5899;51.282;6.094;2023-03-18T06:56:06;10.32;;;7.82;;
11685;SDS011;5899;51.282;6.094;2023-03-18T06:58:33;11.38;;;7.90;;
11685;SDS011;5899;51.282;6.094;2023-03-18T07:01:03;9.75;;;7.68;;
11685;SDS011;5899;51.282;6.094;2023-03-18T07:03:30;9.27;;;7.60;;
11685;SDS011;5899;51.282;6.094;2023-03-18T07:05:57;9.48;;;7.85;;
11685;SDS011;5899;51.282;6.094;2023-03-18T07:08:28;8.63;;;7.23;;
11685;SDS011;5899;51.282;6.094;2023-03-18T07:11:04;10.98;;;7.90;;
11685;SDS011;5899;51.282;6.094;2023-03-18T07:13:32;10.73;;;7.57;;
11685;SDS011;5899;51.282;6.094;2023-03-18T07:15:59;9.88;;;7.32;;
11685;SDS011;5899;51.282;6.094;2023-03-18T07:18:27;10.57;;;7.35;;
11685;SDS011;5899;51.282;6.094;2023-03-18T07:20:59;9.20;;;6.95;;
11685;SDS011;5899;51.282;6.094;2023-03-18T07:23:27;9.98;;;7.43;;
11685;SDS011;5899;51.282;6.094;2023-03-18T07:25:53;9.57;;;7.00;;
11685;SDS011;5899;51.282;6.094;2023-03-18T07:28:23;10.05;;;7.00;;
11685;SDS011;5899;51.282;6.094;2023-03-18T07:30:58;7.88;;;6.60;;
11685;SDS011;5899;51.282;6.094;2023-03-18T07:33:26;8.47;;;6.10;;
11685;SDS011;5899;51.282;6.094;2023-03-18T07:36:00;7.37;;;6.53;;
11685;SDS011;5899;51.282;6.094;2023-03-18T07:38:26;8.77;;;6.70;;
11685;SDS011;5899;51.282;6.094;2023-03-18T07:40:53;8.90;;;6.70;;
11685;SDS011;5899;51.282;6.094;2023-03-18T07:43:24;9.30;;;6.73;;
11685;SDS011;5899;51.282;6.094;2023-03-18T07:45:56;8.07;;;6.50;;
11685;SDS011;5899;51.282;6.094;2023-03-18T07:48:25;8.55;;;5.82;;
11685;SDS011;5899;51.282;6.094;2023-03-18T07:50:59;8.32;;;6.32;;
11685;SDS011;5899;51.282;6.094;2023-03-18T07:53:32;7.63;;;5.72;;
11685;SDS011;5899;51.282;6.094;2023-03-18T07:56:08;6.85;;;5.78;;
11685;SDS011;5899;51.282;6.094;2023-03-18T07:58:35;7.80;;;5.57;;
11685;SDS011;5899;51.282;6.094;2023-03-18T08:01:01;6.93;;;5.63;;
11685;SDS011;5899;51.282;6.094;2023-03-18T08:03:40;6.13;;;5.53;;
11685;SDS011;5899;51.282;6.094;2023-03-18T08:06:15;8.43;;;5.85;;
11685;SDS011;5899;51.282;6.094;2023-03-18T08:08:44;7.63;;;5.27;;
11685;SDS011;5899;51.282;6.094;2023-03-18T08:11:22;6.47;;;5.00;;
11685;SDS011;5899;51.282;6.094;2023-03-18T08:14:01;8.60;;;5.57;;
11685;SDS011;5899;51.282;6.094;2023-03-18T08:16:28;6.18;;;5.07;;
11685;SDS011;5899;51.282;6.094;2023-03-18T08:19:00;5.60;;;4.72;;
11685;SDS011;5899;51.282;6.094;2023-03-18T08:21:32;7.40;;;5.13;;
11685;SDS011;5899;51.282;6.094;2023-03-18T08:23:59;6.27;;;4.60;;
11685;SDS011;5899;51.282;6.094;2023-03-18T08:26:26;7.38;;;5.32;;
11685;SDS011;5899;51.282;6.094;2023-03-18T08:28:52;5.72;;;4.78;;
11685;SDS011;5899;51.282;6.094;2023-03-18T08:31:29;7.70;;;4.88;;
11685;SDS011;5899;51.282;6.094;2023-03-18T08:33:56;7.10;;;5.07;;
11685;SDS011;5899;51.282;6.094;2023-03-18T08:36:26;6.97;;;4.63;;
11685;SDS011;5899;51.282;6.094;2023-03-18T08:39:00;6.47;;;5.88;;
11685;SDS011;5899;51.282;6.094;2023-03-18T08:41:31;5.83;;;5.10;;
11685;SDS011;5899;51.282;6.094;2023-03-18T08:43:58;5.95;;;4.18;;
11685;SDS011;5899;51.282;6.094;2023-03-18T08:46:29;6.07;;;4.43;;
11685;SDS011;5899;51.282;6.094;2023-03-18T08:48:57;5.28;;;4.28;;
11685;SDS011;5899;51.282;6.094;2023-03-18T08:51:28;5.60;;;4.88;;
11685;SDS011;5899;51.282;6.094;2023-03-18T08:53:58;5.90;;;4.25;;
11685;SDS011;5899;51.282;6.094;2023-03-18T08:56:28;6.55;;;4.68;;
11685;SDS011;5899;51.282;6.094;2023-03-18T08:58:58;6.50;;;5.30;;
11685;SDS011;5899;51.282;6.094;2023-03-18T09:01:25;5.82;;;4.65;;
11685;SDS011;5899;51.282;6.094;2023-03-18T09:03:59;4.90;;;4.03;;
11685;SDS011;5899;51.282;6.094;2023-03-18T09:06:30;6.50;;;3.97;;
11685;SDS011;5899;51.282;6.094;2023-03-18T09:09:02;4.80;;;4.35;;
11685;SDS011;5899;51.282;6.094;2023-03-18T09:11:33;6.05;;;4.30;;
11685;SDS011;5899;51.282;6.094;2023-03-18T09:14:16;5.43;;;4.22;;
11685;SDS011;5899;51.282;6.094;2023-03-18T09:16:47;4.65;;;3.85;;
11685;SDS011;5899;51.282;6.094;2023-03-18T09:19:15;6.20;;;4.10;;
11685;SDS011;5899;51.282;6.094;2023-03-18T09:21:42;5.35;;;4.30;;
11685;SDS011;5899;51.282;6.094;2023-03-18T09:27:06;5.90;;;3.60;;
11685;SDS011;5899;51.282;6.094;2023-03-18T09:29:37;5.10;;;3.63;;
11685;SDS011;5899;51.282;6.094;2023-03-18T09:32:06;4.97;;;3.83;;
11685;SDS011;5899;51.282;6.094;2023-03-18T09:34:35;5.93;;;3.90;;
11685;SDS011;5899;51.282;6.094;2023-03-18T09:37:02;5.70;;;3.40;;
11685;SDS011;5899;51.282;6.094;2023-03-18T09:39:34;3.42;;;3.13;;
11685;SDS011;5899;51.282;6.094;2023-03-18T09:42:08;6.57;;;3.60;;
11685;SDS011;5899;51.282;6.094;2023-03-18T09:44:41;4.23;;;3.40;;
11685;SDS011;5899;51.282;6.094;2023-03-18T09:47:15;4.10;;;3.42;;
11685;SDS011;5899;51.282;6.094;2023-03-18T09:49:50;4.10;;;3.37;;
11685;SDS011;5899;51.282;6.094;2023-03-18T09:52:27;5.03;;;3.05;;
11685;SDS011;5899;51.282;6.094;2023-03-18T09:54:58;4.70;;;2.90;;
11685;SDS011;5899;51.282;6.094;2023-03-18T09:57:32;5.28;;;3.33;;
11685;SDS011;5899;51.282;6.094;2023-03-18T10:00:03;3.60;;;2.20;;
11685;SDS011;5899;51.282;6.094;2023-03-18T10:02:34;2.85;;;2.30;;
11685;SDS011;5899;51.282;6.094;2023-03-18T10:05:10;1.70;;;1.60;;
11685;SDS011;5899;51.282;6.094;2023-03-18T10:07:42;4.53;;;2.90;;
11685;SDS011;5899;51.282;6.094;2023-03-18T10:10:14;2.65;;;2.08;;
11685;SDS011;5899;51.282;6.094;2023-03-18T10:12:47;2.42;;;2.10;;
11685;SDS011;5899;51.282;6.094;2023-03-18T10:15:17;3.20;;;1.93;;
11685;SDS011;5899;51.282;6.094;2023-03-18T10:17:51;3.97;;;2.40;;
11685;SDS011;5899;51.282;6.094;2023-03-18T10:20:30;2.63;;;2.20;;
11685;SDS011;5899;51.282;6.094;2023-03-18T10:23:04;3.50;;;2.63;;
11685;SDS011;5899;51.282;6.094;2023-03-18T10:25:36;2.72;;;1.90;;
11685;SDS011;5899;51.282;6.094;2023-03-18T10:31:03;2.10;;;1.80;;
11685;SDS011;5899;51.282;6.094;2023-03-18T10:33:34;3.85;;;3.40;;
11685;SDS011;5899;51.282;6.094;2023-03-18T10:36:03;3.13;;;1.90;;
11685;SDS011;5899;51.282;6.094;2023-03-18T10:38:31;1.67;;;1.58;;
11685;SDS011;5899;51.282;6.094;2023-03-18T10:41:00;2.30;;;2.10;;
11685;SDS011;5899;51.282;6.094;2023-03-18T10:43:30;5.93;;;3.65;;
11685;SDS011;5899;51.282;6.094;2023-03-18T10:45:58;3.40;;;2.90;;
11685;SDS011;5899;51.282;6.094;2023-03-18T10:48:29;5.10;;;3.53;;
11685;SDS011;5899;51.282;6.094;2023-03-18T10:51:00;2.58;;;2.15;;
11685;SDS011;5899;51.282;6.094;2023-03-18T10:53:32;4.72;;;2.60;;
11685;SDS011;5899;51.282;6.094;2023-03-18T10:56:06;2.67;;;2.25;;
11685;SDS011;5899;51.282;6.094;2023-03-18T10:58:33;2.58;;;2.00;;
11685;SDS011;5899;51.282;6.094;2023-03-18T11:01:04;3.00;;;2.13;;
11685;SDS011;5899;51.282;6.094;2023-03-18T11:03:34;2.55;;;1.92;;
11685;SDS011;5899;51.282;6.094;2023-03-18T11:06:11;2.95;;;2.30;;
11685;SDS011;5899;51.282;6.094;2023-03-18T11:08:45;3.83;;;2.83;;
11685;SDS011;5899;51.282;6.094;2023-03-18T11:11:20;3.00;;;2.50;;
11685;SDS011;5899;51.282;6.094;2023-03-18T11:13:57;2.90;;;2.53;;
11685;SDS011;5899;51.282;6.094;2023-03-18T11:16:27;3.93;;;3.00;;
11685;SDS011;5899;51.282;6.094;2023-03-18T11:21:42;3.17;;;2.83;;
11685;SDS011;5899;51.282;6.094;2023-03-18T11:24:19;2.92;;;2.63;;
11685;SDS011;5899;51.282;6.094;2023-03-18T11:27:10;3.15;;;2.60;;
11685;SDS011;5899;51.282;6.094;2023-03-18T11:30:04;3.55;;;3.00;;
11685;SDS011;5899;51.282;6.094;2023-03-18T11:32:48;4.38;;;2.70;;
11685;SDS011;5899;51.282;6.094;2023-03-18T11:35:17;3.17;;;2.73;;
11685;SDS011;5899;51.282;6.094;2023-03-18T11:37:46;4.03;;;3.00;;
11685;SDS011;5899;51.282;6.094;2023-03-18T11:40:19;2.92;;;2.67;;
11685;SDS011;5899;51.282;6.094;2023-03-18T11:42:46;4.97;;;2.70;;
11685;SDS011;5899;51.282;6.094;2023-03-18T11:45:21;3.40;;;2.60;;
11685;SDS011;5899;51.282;6.094;2023-03-18T11:47:59;2.92;;;2.05;;
11685;SDS011;5899;51.282;6.094;2023-03-18T11:50:33;3.00;;;2.20;;
11685;SDS011;5899;51.282;6.094;2023-03-18T11:53:22;3.07;;;2.57;;
11685;SDS011;5899;51.282;6.094;2023-03-18T11:55:55;2.88;;;2.13;;
11685;SDS011;5899;51.282;6.094;2023-03-18T11:58:35;3.40;;;2.00;;
11685;SDS011;5899;51.282;6.094;2023-03-18T12:01:11;2.47;;;1.98;;
11685;SDS011;5899;51.282;6.094;2023-03-18T12:03:50;3.22;;;2.10;;
11685;SDS011;5899;51.282;6.094;2023-03-18T12:06:22;3.88;;;1.83;;
11685;SDS011;5899;51.282;6.094;2023-03-18T12:09:05;2.67;;;2.00;;
11685;SDS011;5899;51.282;6.094;2023-03-18T12:11:43;2.55;;;2.00;;
11685;SDS011;5899;51.282;6.094;2023-03-18T12:14:13;2.13;;;1.77;;
11685;SDS011;5899;51.282;6.094;2023-03-18T12:16:46;3.00;;;2.05;;
11685;SDS011;5899;51.282;6.094;2023-03-18T12:19:38;2.85;;;2.00;;
11685;SDS011;5899;51.282;6.094;2023-03-18T12:24:55;2.83;;;1.85;;
11685;SDS011;5899;51.282;6.094;2023-03-18T12:27:32;3.28;;;1.80;;
11685;SDS011;5899;51.282;6.094;2023-03-18T12:32:49;2.55;;;1.52;;
11685;SDS011;5899;51.282;6.094;2023-03-18T12:35:49;2.30;;;1.50;;
11685;SDS011;5899;51.282;6.094;2023-03-18T12:41:11;3.00;;;2.00;;
11685;SDS011;5899;51.282;6.094;2023-03-18T12:43:50;2.17;;;1.98;;
11685;SDS011;5899;51.282;6.094;2023-03-18T12:46:24;2.10;;;1.73;;
11685;SDS011;5899;51.282;6.094;2023-03-18T12:49:08;2.30;;;1.83;;
11685;SDS011;5899;51.282;6.094;2023-03-18T12:51:42;3.00;;;1.90;;
11685;SDS011;5899;51.282;6.094;2023-03-18T12:54:16;2.90;;;1.70;;
11685;SDS011;5899;51.282;6.094;2023-03-18T12:56:52;2.70;;;1.52;;
11685;SDS011;5899;51.282;6.094;2023-03-18T12:59:22;2.50;;;1.90;;
11685;SDS011;5899;51.282;6.094;2023-03-18T13:01:53;3.83;;;1.80;;
11685;SDS011;5899;51.282;6.094;2023-03-18T13:04:23;2.65;;;1.80;;
11685;SDS011;5899;51.282;6.094;2023-03-18T13:06:57;2.35;;;1.75;;
11685;SDS011;5899;51.282;6.094;2023-03-18T13:09:34;2.20;;;1.63;;
11685;SDS011;5899;51.282;6.094;2023-03-18T13:12:12;3.67;;;1.90;;
11685;SDS011;5899;51.282;6.094;2023-03-18T13:14:42;3.25;;;2.22;;
11685;SDS011;5899;51.282;6.094;2023-03-18T13:17:13;2.60;;;1.90;;
11685;SDS011;5899;51.282;6.094;2023-03-18T13:19:43;2.20;;;1.80;;
11685;SDS011;5899;51.282;6.094;2023-03-18T13:22:22;1.88;;;1.77;;
11685;SDS011;5899;51.282;6.094;2023-03-18T13:25:03;4.03;;;1.80;;
11685;SDS011;5899;51.282;6.094;2023-03-18T13:27:49;4.03;;;2.22;;
11685;SDS011;5899;51.282;6.094;2023-03-18T13:30:24;7.90;;;5.22;;
11685;SDS011;5899;51.282;6.094;2023-03-18T13:33:10;4.78;;;3.58;;
11685;SDS011;5899;51.282;6.094;2023-03-18T13:35:44;3.78;;;2.00;;
11685;SDS011;5899;51.282;6.094;2023-03-18T13:38:31;2.40;;;1.90;;
11685;SDS011;5899;51.282;6.094;2023-03-18T13:41:14;3.55;;;1.73;;
11685;SDS011;5899;51.282;6.094;2023-03-18T13:43:51;2.35;;;1.80;;
11685;SDS011;5899;51.282;6.094;2023-03-18T13:46:22;1.75;;;1.65;;
11685;SDS011;5899;51.282;6.094;2023-03-18T13:48:52;3.20;;;1.80;;
11685;SDS011;5899;51.282;6.094;2023-03-18T13:54:04;2.83;;;2.03;;
11685;SDS011;5899;51.282;6.094;2023-03-18T13:56:32;2.40;;;1.80;;
11685;SDS011;5899;51.282;6.094;2023-03-18T13:59:04;3.28;;;1.77;;
11685;SDS011;5899;51.282;6.094;2023-03-18T14:01:32;2.70;;;1.63;;
11685;SDS011;5899;51.282;6.094;2023-03-18T14:04:19;2.63;;;1.60;;
11685;SDS011;5899;51.282;6.094;2023-03-18T14:06:53;2.58;;;1.73;;
11685;SDS011;5899;51.282;6.094;2023-03-18T14:09:22;2.95;;;1.48;;
11685;SDS011;5899;51.282;6.094;2023-03-18T14:11:50;2.67;;;1.80;;
11685;SDS011;5899;51.282;6.094;2023-03-18T14:17:20;4.07;;;1.97;;
11685;SDS011;5899;51.282;6.094;2023-03-18T14:19:58;4.15;;;1.92;;
11685;SDS011;5899;51.282;6.094;2023-03-18T14:22:40;2.00;;;1.80;;
11685;SDS011;5899;51.282;6.094;2023-03-18T14:27:58;3.92;;;1.85;;
11685;SDS011;5899;51.282;6.094;2023-03-18T14:30:47;4.20;;;1.98;;
11685;SDS011;5899;51.282;6.094;2023-03-18T14:33:38;2.72;;;1.73;;
11685;SDS011;5899;51.282;6.094;2023-03-18T14:36:14;2.00;;;1.70;;
11685;SDS011;5899;51.282;6.094;2023-03-18T14:38:47;4.22;;;2.10;;
11685;SDS011;5899;51.282;6.094;2023-03-18T14:41:19;4.97;;;2.17;;
11685;SDS011;5899;51.282;6.094;2023-03-18T14:44:05;4.78;;;1.95;;
11685;SDS011;5899;51.282;6.094;2023-03-18T14:46:38;2.90;;;1.90;;
11685;SDS011;5899;51.282;6.094;2023-03-18T14:49:25;2.33;;;1.70;;
11685;SDS011;5899;51.282;6.094;2023-03-18T14:51:57;3.33;;;1.90;;
11685;SDS011;5899;51.282;6.094;2023-03-18T14:54:28;2.10;;;1.73;;
11685;SDS011;5899;51.282;6.094;2023-03-18T14:57:01;2.77;;;2.03;;
11685;SDS011;5899;51.282;6.094;2023-03-18T14:59:29;3.60;;;2.08;;
11685;SDS011;5899;51.282;6.094;2023-03-18T15:02:06;3.35;;;1.70;;
11685;SDS011;5899;51.282;6.094;2023-03-18T15:04:40;4.17;;;2.10;;
11685;SDS011;5899;51.282;6.094;2023-03-18T15:07:19;3.17;;;1.88;;
11685;SDS011;5899;51.282;6.094;2023-03-18T15:09:48;2.97;;;1.85;;
11685;SDS011;5899;51.282;6.094;2023-03-18T15:12:16;2.95;;;1.85;;
11685;SDS011;5899;51.282;6.094;2023-03-18T15:14:43;2.03;;;1.83;;
11685;SDS011;5899;51.282;6.094;2023-03-18T15:17:13;2.53;;;1.73;;
11685;SDS011;5899;51.282;6.094;2023-03-18T15:19:45;2.92;;;1.60;;
11685;SDS011;5899;51.282;6.094;2023-03-18T15:22:16;1.83;;;1.40;;
11685;SDS011;5899;51.282;6.094;2023-03-18T15:24:47;3.20;;;1.75;;
11685;SDS011;5899;51.282;6.094;2023-03-18T15:27:16;3.85;;;1.80;;
11685;SDS011;5899;51.282;6.094;2023-03-18T15:29:47;2.38;;;1.80;;
11685;SDS011;5899;51.282;6.094;2023-03-18T15:32:21;3.83;;;1.95;;
11685;SDS011;5899;51.282;6.094;2023-03-18T15:34:51;2.22;;;1.95;;
11685;SDS011;5899;51.282;6.094;2023-03-18T15:37:23;2.90;;;1.60;;
11685;SDS011;5899;51.282;6.094;2023-03-18T15:39:51;2.90;;;1.75;;
11685;SDS011;5899;51.282;6.094;2023-03-18T15:42:21;4.93;;;2.00;;
11685;SDS011;5899;51.282;6.094;2023-03-18T15:44:52;2.75;;;1.67;;
11685;SDS011;5899;51.282;6.094;2023-03-18T15:47:26;2.47;;;1.80;;
11685;SDS011;5899;51.282;6.094;2023-03-18T15:49:58;2.23;;;1.60;;
11685;SDS011;5899;51.282;6.094;2023-03-18T15:52:30;2.25;;;1.70;;
11685;SDS011;5899;51.282;6.094;2023-03-18T15:55:19;2.03;;;1.50;;
11685;SDS011;5899;51.282;6.094;2023-03-18T15:57:54;2.15;;;1.45;;
11685;SDS011;5899;51.282;6.094;2023-03-18T16:00:25;3.20;;;1.50;;